Time;durP1;ratioP1;P1;durP2;ratioP2;P2;SDS_P1;SDS_P2;PMS_P1;PMS_P2;Temp;Humidity;BMP_temperature;BMP_pressure;BME280_temperature;BME280_humidity;BME280_pressure;Samples;Min_cycle;Max_cycle;Signal;HPM_P1;HPM_P2
2022/05/01 00:08:15;;;;;;;0.10;0.10;;;5.90;99.90;;;;;;21059445;28;20043;-51
2022/05/01 00:18:19;;;;;;;0.57;0.10;;;5.80;99.90;;;;;;21059235;28;20032;-52
2022/05/01 00:28:23;;;;;;;0.25;0.10;;;5.60;99.90;;;;;;21061479;28;20035;-49
2022/05/01 00:38:26;;;;;;;0.20;0.13;;;5.50;99.90;;;;;;21058815;28;20043;-56
2022/05/01 00:48:29;;;;;;;1.67;0.30;;;5.40;99.90;;;;;;21135621;28;20104;-48
2022/05/01 00:58:32;;;;;;;0.38;0.20;;;5.40;99.90;;;;;;21139722;28;20035;-52
2022/05/01 01:08:35;;;;;;;0.32;0.20;;;5.40;99.90;;;;;;21140578;28;20303;-52
2022/05/01 01:18:39;;;;;;;2.22;0.50;;;5.30;99.90;;;;;;21134769;28;20035;-49
2022/05/01 01:28:42;;;;;;;0.50;0.20;;;5.20;99.90;;;;;;21138030;28;20497;-52
2022/05/01 01:38:44;;;;;;;0.82;0.43;;;5.10;99.90;;;;;;21137041;28;20430;-51
2022/05/01 01:48:48;;;;;;;0.80;0.47;;;5.10;99.90;;;;;;21069048;28;20570;-49
2022/05/01 01:58:53;;;;;;;0.70;0.50;;;5.10;99.90;;;;;;21068617;28;20105;-56
2022/05/01 02:08:57;;;;;;;0.90;0.52;;;5.10;99.90;;;;;;21068149;28;20035;-51
2022/05/01 02:19:00;;;;;;;0.93;0.50;;;5.20;99.90;;;;;;21067028;28;20035;-47
2022/05/01 02:29:09;;;;;;;0.50;0.32;;;5.20;99.90;;;;;;21066055;28;20040;-52
2022/05/01 02:39:13;;;;;;;2.08;0.57;;;5.20;99.90;;;;;;21066015;28;20032;-49
2022/05/01 02:49:16;;;;;;;0.98;0.70;;;5.20;99.90;;;;;;21137346;28;20187;-52
2022/05/01 02:59:18;;;;;;;3.72;0.85;;;5.10;99.90;;;;;;21126640;28;20445;-54
2022/05/01 03:09:21;;;;;;;0.68;0.47;;;5.20;99.90;;;;;;21129794;28;20350;-54
2022/05/01 03:30:15;;;;;;;2.53;0.90;;;5.20;99.90;;;;;;21128830;28;20065;-48
2022/05/01 03:40:09;;;;;;;1.00;0.80;;;5.30;99.90;;;;;;21118699;28;20051;-57
2022/05/01 03:50:12;;;;;;;1.30;0.98;;;5.20;99.90;;;;;;21043610;28;20078;-57
2022/05/01 04:00:20;;;;;;;2.35;1.45;;;5.30;99.90;;;;;;21042809;28;20036;-51
2022/05/01 04:10:22;;;;;;;3.65;2.35;;;5.30;99.90;;;;;;21042902;28;20032;-57
2022/05/01 04:20:25;;;;;;;2.55;2.00;;;5.50;99.90;;;;;;21025772;28;20036;-49
2022/05/01 04:30:29;;;;;;;3.70;2.38;;;5.70;99.90;;;;;;21053755;28;20031;-51
2022/05/01 04:40:38;;;;;;;2.33;1.65;;;5.60;99.90;;;;;;21067166;28;20056;-58
2022/05/01 04:50:41;;;;;;;2.92;1.98;;;5.60;99.90;;;;;;21141345;28;20512;-52
2022/05/01 05:00:44;;;;;;;2.00;1.30;;;5.60;99.90;;;;;;21123378;28;20085;-51
2022/05/01 05:10:49;;;;;;;2.42;1.40;;;5.60;99.90;;;;;;21139796;28;20396;-47
2022/05/01 05:20:51;;;;;;;3.45;1.60;;;5.60;99.90;;;;;;21121820;28;20036;-51
2022/05/01 05:30:54;;;;;;;1.67;1.23;;;5.70;99.90;;;;;;21137904;28;20294;-48
2022/05/01 05:40:57;;;;;;;3.40;1.90;;;5.60;99.90;;;;;;21136288;27;20044;-55
2022/05/01 05:51:00;;;;;;;4.88;1.52;;;5.70;99.90;;;;;;21120293;28;20035;-54
2022/05/01 06:01:03;;;;;;;1.50;0.90;;;5.70;99.90;;;;;;21135389;28;20032;-46
2022/05/01 06:11:06;;;;;;;1.20;0.80;;;5.90;99.90;;;;;;21134403;28;20092;-50
2022/05/01 06:21:08;;;;;;;2.45;0.70;;;6.20;99.90;;;;;;21116722;27;20416;-50
2022/05/01 06:31:11;;;;;;;1.35;0.90;;;6.40;99.90;;;;;;21132640;28;20032;-50
2022/05/01 06:41:15;;;;;;;2.38;0.95;;;6.50;99.90;;;;;;21131787;28;20039;-47
2022/05/01 06:51:18;;;;;;;1.40;0.80;;;6.60;99.90;;;;;;21130526;28;20385;-46
2022/05/01 07:01:21;;;;;;;1.10;0.82;;;6.70;99.90;;;;;;21126970;28;20035;-47
2022/05/01 07:11:23;;;;;;;1.23;0.65;;;6.60;99.90;;;;;;21129684;28;20072;-48
2022/05/01 07:21:26;;;;;;;2.05;0.95;;;6.70;99.90;;;;;;21129086;28;20104;-48
2022/05/01 07:31:29;;;;;;;1.45;0.90;;;6.90;99.90;;;;;;21129084;28;20028;-47
2022/05/01 07:41:33;;;;;;;2.05;1.25;;;7.00;99.90;;;;;;21124995;28;20576;-49
2022/05/01 07:51:37;;;;;;;2.45;0.90;;;7.00;99.90;;;;;;21127495;28;20027;-51
2022/05/01 08:01:40;;;;;;;1.70;0.90;;;6.90;99.90;;;;;;21133634;28;20036;-48
2022/05/01 08:11:44;;;;;;;3.10;1.40;;;6.60;99.90;;;;;;21144223;28;20112;-49
2022/05/01 08:21:46;;;;;;;2.85;1.70;;;6.10;99.90;;;;;;21143660;28;20028;-47
2022/05/01 08:31:49;;;;;;;7.45;2.35;;;6.00;99.90;;;;;;21142136;28;20456;-46
2022/05/01 08:41:52;;;;;;;3.33;2.22;;;6.00;99.90;;;;;;21171265;27;20389;-50
2022/05/01 08:52:00;;;;;;;3.28;2.40;;;6.30;99.90;;;;;;21141355;28;20096;-53
2022/05/01 09:02:03;;;;;;;7.40;3.72;;;6.30;99.90;;;;;;21162130;27;20039;-44
2022/05/01 09:22:46;;;;;;;6.18;3.67;;;7.20;99.90;;;;;;21205263;27;20044;-46
2022/05/01 09:32:49;;;;;;;3.92;3.03;;;9.20;99.90;;;;;;21137908;28;20039;-51
2022/05/01 09:42:52;;;;;;;3.28;2.50;;;11.30;99.90;;;;;;21136614;27;20047;-49
2022/05/01 09:53:03;;;;;;;1.90;1.55;;;12.90;99.90;;;;;;21136145;28;20069;-59
2022/05/01 10:03:25;;;;;;;1.52;1.30;;;14.30;99.90;;;;;;21135108;28;20035;-57
2022/05/01 10:13:28;;;;;;;2.08;1.42;;;13.90;99.90;;;;;;21134209;28;20035;-59
2022/05/01 10:23:31;;;;;;;1.50;0.90;;;14.80;99.90;;;;;;21132548;28;20027;-49
2022/05/01 10:34:00;;;;;;;1.33;0.90;;;14.00;99.90;;;;;;21132254;28;20446;-53
2022/05/01 10:44:03;;;;;;;2.25;0.80;;;14.40;99.90;;;;;;21132303;28;20047;-53
2022/05/01 10:54:15;;;;;;;1.30;1.00;;;14.70;99.90;;;;;;21131254;28;20035;-53
2022/05/01 11:04:21;;;;;;;1.10;0.80;;;13.50;99.90;;;;;;21131693;28;20092;-53
2022/05/01 11:14:35;;;;;;;1.75;1.27;;;13.10;99.90;;;;;;21129334;28;20476;-60
2022/05/01 11:24:45;;;;;;;2.22;1.40;;;14.20;99.90;;;;;;21129099;28;20039;-54
2022/05/01 11:34:50;;;;;;;1.65;1.25;;;15.10;99.90;;;;;;21128198;28;20549;-54
2022/05/01 11:44:57;;;;;;;1.35;1.15;;;13.70;99.90;;;;;;21127693;28;20119;-51
2022/05/01 11:55:06;;;;;;;3.33;1.38;;;11.90;99.90;;;;;;21127727;28;20438;-60
2022/05/01 12:05:10;;;;;;;1.45;1.00;;;11.70;99.90;;;;;;21127451;28;20040;-53
2022/05/01 12:15:13;;;;;;;2.08;1.13;;;12.40;99.90;;;;;;21127272;28;20350;-62
2022/05/01 12:25:18;;;;;;;2.50;1.42;;;13.00;99.90;;;;;;21126532;28;20032;-61
2022/05/01 12:35:21;;;;;;;2.10;1.20;;;13.30;99.90;;;;;;21126297;28;20742;-61
2022/05/01 12:45:33;;;;;;;1.65;1.33;;;13.60;99.90;;;;;;21125775;28;20440;-53
2022/05/01 12:55:37;;;;;;;1.23;1.02;;;14.10;99.90;;;;;;21140972;28;20035;-61
2022/05/01 13:05:42;;;;;;;3.45;1.38;;;15.90;99.90;;;;;;21139969;28;20102;-62
2022/05/01 13:15:48;;;;;;;1.65;1.20;;;16.70;98.50;;;;;;21139634;28;20031;-63
2022/05/01 13:25:51;;;;;;;1.63;1.27;;;16.40;99.30;;;;;;21223439;27;20436;-62
2022/05/01 13:35:54;;;;;;;1.85;1.35;;;17.20;99.90;;;;;;21213876;27;20187;-52
2022/05/01 13:45:57;;;;;;;1.85;1.00;;;16.30;95.80;;;;;;21136139;28;20128;-62
2022/05/01 13:56:02;;;;;;;2.20;1.10;;;14.80;99.90;;;;;;21135467;28;20036;-62
2022/05/01 14:06:06;;;;;;;1.30;0.98;;;15.00;99.90;;;;;;21135063;28;20127;-54
2022/05/01 14:16:09;;;;;;;2.38;1.55;;;15.10;99.90;;;;;;21134732;28;20400;-60
2022/05/01 14:26:14;;;;;;;2.63;1.75;;;14.00;98.70;;;;;;21134104;28;20032;-60
2022/05/01 14:36:25;;;;;;;1.95;1.60;;;12.80;99.50;;;;;;21133838;28;20031;-59
2022/05/01 14:46:29;;;;;;;2.10;1.60;;;11.30;99.90;;;;;;21132039;28;20419;-59
2022/05/01 14:56:37;;;;;;;1.98;1.58;;;10.50;99.90;;;;;;21201565;27;20388;-59
2022/05/01 15:06:43;;;;;;;1.95;1.42;;;10.20;99.90;;;;;;21215530;27;20035;-59
2022/05/01 15:17:07;;;;;;;1.35;1.05;;;10.30;99.90;;;;;;21214678;27;20087;-59
2022/05/01 15:27:17;;;;;;;2.78;1.40;;;10.30;99.90;;;;;;21213821;27;20035;-59
2022/05/01 15:37:31;;;;;;;1.50;1.20;;;10.40;98.50;;;;;;21192174;27;20470;-59
2022/05/01 15:47:36;;;;;;;1.50;1.08;;;10.40;97.80;;;;;;21060659;28;20040;-49
2022/05/01 15:57:43;;;;;;;0.73;0.70;;;11.00;97.60;;;;;;21043868;28;20056;-53
2022/05/01 16:08:25;;;;;;;0.85;0.82;;;12.70;95.10;;;;;;21059888;28;20036;-52
2022/05/01 16:18:37;;;;;;;1.00;0.90;;;14.30;94.40;;;;;;21060106;28;20048;-53
2022/05/01 16:29:14;;;;;;;2.05;1.10;;;14.60;94.40;;;;;;21075330;28;20044;-59
2022/05/01 16:39:20;;;;;;;1.92;1.20;;;13.10;96.80;;;;;;21107763;28;20072;-59
2022/05/01 16:49:24;;;;;;;1.65;1.20;;;12.30;99.90;;;;;;21047860;28;20083;-53
2022/05/01 16:59:30;;;;;;;1.80;1.40;;;11.90;99.90;;;;;;21047289;28;20052;-59
2022/05/01 17:10:03;;;;;;;2.67;1.70;;;11.10;99.90;;;;;;21046519;28;20089;-52
2022/05/01 17:20:11;;;;;;;3.65;1.75;;;10.10;99.90;;;;;;21098961;28;20043;-52
2022/05/01 17:30:16;;;;;;;2.50;1.92;;;9.30;99.90;;;;;;21137891;28;20040;-51
2022/05/01 17:40:20;;;;;;;2.05;1.67;;;8.70;99.90;;;;;;21097835;28;20055;-45
2022/05/01 17:50:24;;;;;;;4.15;2.60;;;8.10;99.90;;;;;;21136490;28;20092;-57
2022/05/01 18:00:27;;;;;;;3.83;2.42;;;7.50;99.90;;;;;;21182950;27;20031;-49
2022/05/01 18:10:45;;;;;;;3.55;2.75;;;7.00;99.90;;;;;;21219930;27;20096;-56
2022/05/01 18:20:58;;;;;;;3.88;3.03;;;6.80;99.90;;;;;;21163511;27;20521;-56
2022/05/01 18:31:11;;;;;;;3.75;3.00;;;6.80;99.90;;;;;;21163615;27;20495;-47
2022/05/01 18:41:23;;;;;;;4.95;3.25;;;6.70;99.90;;;;;;21156032;27;20063;-55
2022/05/01 18:51:29;;;;;;;3.42;2.63;;;6.50;99.90;;;;;;21130708;28;20101;-53
2022/05/01 19:01:34;;;;;;;4.85;2.83;;;6.20;99.90;;;;;;21054351;28;20078;-55
2022/05/01 19:12:12;;;;;;;4.65;3.28;;;5.70;99.90;;;;;;21053665;28;20059;-57
2022/05/01 19:22:41;;;;;;;4.65;3.55;;;5.30;99.90;;;;;;21022038;28;20131;-48
2022/05/01 19:33:08;;;;;;;5.15;3.78;;;5.30;99.90;;;;;;20786201;28;20159;-55
2022/05/01 19:43:38;;;;;;;10.55;4.90;;;5.10;99.90;;;;;;20803023;28;20580;-52
2022/05/01 19:53:53;;;;;;;7.80;5.10;;;4.80;99.90;;;;;;20786715;28;20495;-51
2022/05/01 20:03:57;;;;;;;8.45;5.45;;;4.60;99.90;;;;;;20896679;28;20071;-52
2022/05/01 20:14:03;;;;;;;7.13;4.25;;;4.50;99.90;;;;;;21071000;28;20044;-45
2022/05/01 20:24:43;;;;;;;5.35;3.60;;;4.50;99.90;;;;;;21070577;28;20061;-46
2022/05/01 20:34:59;;;;;;;8.85;3.10;;;4.40;99.90;;;;;;21070109;28;20462;-46
2022/05/01 20:45:08;;;;;;;4.82;3.00;;;4.30;99.90;;;;;;21069065;28;20048;-48
2022/05/01 20:55:13;;;;;;;4.70;3.05;;;4.60;99.90;;;;;;21085838;28;20130;-45
2022/05/01 21:05:20;;;;;;;3.80;2.67;;;4.50;99.90;;;;;;21085491;28;20529;-49
2022/05/01 21:15:24;;;;;;;3.88;2.88;;;4.40;99.90;;;;;;21071407;28;20268;-47
2022/05/01 21:25:27;;;;;;;4.25;2.50;;;4.30;99.90;;;;;;21054606;28;20036;-54
2022/05/01 21:35:29;;;;;;;3.33;2.33;;;4.70;99.90;;;;;;21071281;28;20058;-54
2022/05/01 21:45:31;;;;;;;3.28;2.05;;;5.00;99.90;;;;;;21104190;28;20052;-50
2022/05/01 21:55:35;;;;;;;3.45;2.47;;;5.10;99.90;;;;;;21137339;28;20361;-47
2022/05/01 22:05:39;;;;;;;3.25;2.25;;;5.30;99.90;;;;;;21152482;27;20099;-46
2022/05/01 22:15:42;;;;;;;4.10;2.40;;;5.40;99.90;;;;;;21135026;28;20096;-49
2022/05/01 22:25:45;;;;;;;2.92;2.50;;;5.60;99.90;;;;;;21167128;27;20031;-45
2022/05/01 22:46:10;;;;;;;4.38;2.90;;;5.80;99.90;;;;;;21132324;28;20051;-47
2022/05/01 22:56:13;;;;;;;4.22;2.33;;;5.60;99.90;;;;;;21131451;28;20036;-48
2022/05/01 23:06:15;;;;;;;3.38;2.33;;;5.30;99.90;;;;;;21130746;28;20099;-54
2022/05/01 23:16:19;;;;;;;3.40;2.50;;;5.10;99.90;;;;;;21160645;27;20092;-49
2022/05/01 23:26:22;;;;;;;2.92;2.15;;;4.90;99.90;;;;;;21214029;27;20430;-52
2022/05/01 23:36:24;;;;;;;3.75;2.53;;;4.70;99.90;;;;;;21200114;27;20171;-48
2022/05/01 23:46:27;;;;;;;3.30;1.80;;;4.70;99.90;;;;;;21127615;28;20047;-44
2022/05/01 23:56:29;;;;;;;2.40;1.67;;;5.00;99.90;;;;;;21111216;28;20140;-50
